Falcon — WDH2087 — position and weather

sailwx.info

Track history (hours):
 
Tides and Currents Weather Stations Pressure Air Temp Water Temp Dewpoint Dewpoint Depression Visibility Wind Speed Wind Dir Waves Ship Positions

Falcon

Owner: Vane Line Bunkering, Inc., Philadelphia, PA. More information available from US FCC via Universal Licensing System.

Last reported at 2018-Apr-25 18:17 UTC. Time now 2018-Apr-25 21:59 UTC.
Position N 36°57' W 076°20'.

; draft 3.5 m.

MMSI: 367594260.

Date/timePositionNaut miles runAvg speedWind from/ knotsBaromVisibWave heightAir tempDewpointWater temp
2018-Apr-25 18:17N 36°57' W 076°20'4 7.1
2018-Apr-25 17:44N 36°53' W 076°20'2 7.0
2018-Apr-25 17:28N 36°51' W 076°19'3 5.9
2018-Apr-25 17:01N 36°49' W 076°17'1 1.8
2018-Apr-25 16:30N 36°48' W 076°18'0 0.1
2018-Apr-25 16:01N 36°48' W 076°18'0 0.0
2018-Apr-25 15:31N 36°48' W 076°18'0 0.0
2018-Apr-25 15:00N 36°48' W 076°18'0 0.0
2018-Apr-25 14:31N 36°48' W 076°18'0 0.0
2018-Apr-25 14:00N 36°48' W 076°18'0 0.0
2018-Apr-25 13:30N 36°48' W 076°18'0 0.0
2018-Apr-25 13:01N 36°48' W 076°18'0 0.0
2018-Apr-25 12:30N 36°48' W 076°18'0 0.0
2018-Apr-25 12:01N 36°48' W 076°18'0 0.0
2018-Apr-25 11:31N 36°48' W 076°18'0 0.0
2018-Apr-25 11:00N 36°48' W 076°18'0 0.0
2018-Apr-25 10:31N 36°48' W 076°18'0 0.0
2018-Apr-25 10:01N 36°48' W 076°18'0 0.0
2018-Apr-25 09:31N 36°48' W 076°18'0 0.0
2018-Apr-25 09:01N 36°48' W 076°18'0 0.0
2018-Apr-25 08:30N 36°48' W 076°18'0 0.0
2018-Apr-25 08:01N 36°48' W 076°18'0 0.0
2018-Apr-25 07:31N 36°48' W 076°18'0 0.0
2018-Apr-25 07:01N 36°48' W 076°18'0 0.0
2018-Apr-25 06:31N 36°48' W 076°18'0 0.0
2018-Apr-25 06:01N 36°48' W 076°18'0 0.0
2018-Apr-25 05:30N 36°48' W 076°18'0 0.0
2018-Apr-25 05:01N 36°48' W 076°18'0 0.0
2018-Apr-25 04:31N 36°48' W 076°18'0 0.0
2018-Apr-25 04:00N 36°48' W 076°18'0 0.0
2018-Apr-25 03:31N 36°48' W 076°18'0 0.0
2018-Apr-25 03:00N 36°48' W 076°18'0 0.0
2018-Apr-25 02:31N 36°48' W 076°18'0 0.0
2018-Apr-25 02:01N 36°48' W 076°18'0 0.0
2018-Apr-25 01:30N 36°48' W 076°18'0 0.0
2018-Apr-25 01:00N 36°48' W 076°18'0 0.0
2018-Apr-25 00:30N 36°48' W 076°18'0 0.0
2018-Apr-25 00:01N 36°48' W 076°18'0 0.0
2018-Apr-24 23:31N 36°48' W 076°18'0 0.0
2018-Apr-24 23:00N 36°48' W 076°18'0 0.0
2018-Apr-24 22:31N 36°48' W 076°18'0 0.0
2018-Apr-24 22:01N 36°48' W 076°18'0 0.0
2018-Apr-24 21:31N 36°48' W 076°18'0 0.0
2018-Apr-24 21:01N 36°48' W 076°18'0 0.0
2018-Apr-24 20:31N 36°48' W 076°18'0 0.0
2018-Apr-24 20:00N 36°48' W 076°18'0 0.0
2018-Apr-24 19:31N 36°48' W 076°18'0 0.0
2018-Apr-24 19:01N 36°48' W 076°18'0 0.0
2018-Apr-24 16:27N 36°48' W 076°18'0 0.0
2018-Apr-24 16:00N 36°48' W 076°18'0 0.0
2018-Apr-24 15:30N 36°48' W 076°18'0 0.0
2018-Apr-24 15:00N 36°48' W 076°18'0 0.0
2018-Apr-24 14:30N 36°48' W 076°18'0 0.0
2018-Apr-24 14:00N 36°48' W 076°18'0 0.0
2018-Apr-24 13:30N 36°48' W 076°18'0 0.0
2018-Apr-24 13:00N 36°48' W 076°18'0 0.0
2018-Apr-24 12:30N 36°48' W 076°18'0 0.1
2018-Apr-24 12:00N 36°48' W 076°18'2 3.5
2018-Apr-24 11:30N 36°50' W 076°18'3 6.5
2018-Apr-24 11:00N 36°52' W 076°20'96 4.4
2018-Apr-23 13:13N 38°22' W 075°37'0 0.0
2018-Apr-23 12:52N 38°22' W 075°37'0 0.0
2018-Apr-23 12:30N 38°22' W 075°37'0 0.1
2018-Apr-23 11:42N 38°22' W 075°37'0 1.9
2018-Apr-23 11:30N 38°21' W 075°37'4 3.9
2018-Apr-23 10:34N 38°21' W 075°42'1 2.6
2018-Apr-23 10:17N 38°21' W 075°43'1 3.9
2018-Apr-23 10:00N 38°20' W 075°44'2 4.7
2018-Apr-23 09:30N 38°18' W 075°46'3 5.2
2018-Apr-23 09:00N 38°16' W 075°47'3 5.6
2018-Apr-23 08:30N 38°15' W 075°51'3 5.4
2018-Apr-23 08:00N 38°13' W 075°53'3 5.6
2018-Apr-23 07:30N 38°12' W 075°56'7 5.2
2018-Apr-23 06:04N 38°05' W 075°58'0 6.0
2018-Apr-23 06:00N 38°05' W 075°58'3 5.6
2018-Apr-23 05:30N 38°02' W 075°56'3 5.5
2018-Apr-23 05:00N 37°60' W 075°55'3 5.7
2018-Apr-23 04:30N 37°57' W 075°56'63 3.3
2018-Apr-22 09:16N 36°57' W 076°21'2 4.6
2018-Apr-22 08:55N 36°56' W 076°20'3 8.1
2018-Apr-22 08:30N 36°52' W 076°20'3 6.5
2018-Apr-22 08:01N 36°50' W 076°18'2 3.3
2018-Apr-22 07:31N 36°48' W 076°18'0 0.0
2018-Apr-22 06:50N 36°48' W 076°18'0 0.0
2018-Apr-22 06:29N 36°48' W 076°18'0 0.0
2018-Apr-22 05:59N 36°48' W 076°18'0 0.0
2018-Apr-22 05:29N 36°48' W 076°18'0 0.0
2018-Apr-22 04:53N 36°48' W 076°18'0 0.0
2018-Apr-22 04:29N 36°48' W 076°18'0 0.0
2018-Apr-22 03:59N 36°48' W 076°18'0 0.0
2018-Apr-22 03:29N 36°48' W 076°18'0 0.0
2018-Apr-22 02:50N 36°48' W 076°18'0 0.1
2018-Apr-22 02:25N 36°48' W 076°18'0 0.0
2018-Apr-22 01:49N 36°48' W 076°18'0 0.0
2018-Apr-22 01:07N 36°48' W 076°18'0 0.0
2018-Apr-22 00:37N 36°48' W 076°18'0 0.0
2018-Apr-21 22:55N 36°48' W 076°18'0 0.0
2018-Apr-21 21:37N 36°48' W 076°18'0 0.0
2018-Apr-21 21:19N 36°48' W 076°18'0 0.0
2018-Apr-21 20:55N 36°48' W 076°18'0 0.0
2018-Apr-21 19:37N 36°48' W 076°18'0 0.0
2018-Apr-21 19:10N 36°48' W 076°18'0 0.0
2018-Apr-21 18:58N 36°48' W 076°18'0 0.0
2018-Apr-21 18:29N 36°48' W 076°18'0 0.0
2018-Apr-21 18:00N 36°48' W 076°18'0 0.0
2018-Apr-21 17:30N 36°48' W 076°18'0 0.0
2018-Apr-21 17:01N 36°48' W 076°18'0 0.0
2018-Apr-21 16:31N 36°48' W 076°18'0 0.0
2018-Apr-21 16:00N 36°48' W 076°18'0 0.0
2018-Apr-21 15:30N 36°48' W 076°18'0 0.0
2018-Apr-21 15:01N 36°48' W 076°18'0 0.0
2018-Apr-21 14:31N 36°48' W 076°18'0 0.0
2018-Apr-21 14:00N 36°48' W 076°18'0 0.0
2018-Apr-21 13:31N 36°48' W 076°18'0 0.0
2018-Apr-21 13:00N 36°48' W 076°18'0 0.0
2018-Apr-21 12:31N 36°48' W 076°18'0 0.0
2018-Apr-21 12:00N 36°48' W 076°18'0 0.0
2018-Apr-21 11:31N 36°48' W 076°18'0 0.0
2018-Apr-21 11:01N 36°48' W 076°18'0 0.0
2018-Apr-21 10:30N 36°48' W 076°18'0 0.0
2018-Apr-21 10:01N 36°48' W 076°18'0 0.0
2018-Apr-21 09:31N 36°48' W 076°18'0 0.0
2018-Apr-21 09:00N 36°48' W 076°18'0 0.0
2018-Apr-21 08:30N 36°48' W 076°18'0 0.0
2018-Apr-21 08:00N 36°48' W 076°18'0 0.0
2018-Apr-21 07:31N 36°48' W 076°18'0 0.0
2018-Apr-21 07:00N 36°48' W 076°18'0 0.0
2018-Apr-21 06:30N 36°48' W 076°18'0 0.0
2018-Apr-21 06:01N 36°48' W 076°18'0 0.0
2018-Apr-21 05:30N 36°48' W 076°18'0 0.0
2018-Apr-21 05:01N 36°48' W 076°18'0 0.0
2018-Apr-21 04:31N 36°48' W 076°18'0 0.0
2018-Apr-21 04:00N 36°48' W 076°18'0 0.0
2018-Apr-21 03:31N 36°48' W 076°18'0 0.0
2018-Apr-21 03:01N 36°48' W 076°18'0 0.0
2018-Apr-21 02:31N 36°48' W 076°18'0 0.0
2018-Apr-21 02:00N 36°48' W 076°18'0 0.0
2018-Apr-21 01:30N 36°48' W 076°18'0 0.0
2018-Apr-21 01:00N 36°48' W 076°18'0 0.0
2018-Apr-21 00:31N 36°48' W 076°18'0 0.0
2018-Apr-21 00:01N 36°48' W 076°18'0 0.0
2018-Apr-20 23:30N 36°48' W 076°18'0 0.0
2018-Apr-20 23:01N 36°48' W 076°18'0 0.4
2018-Apr-20 22:31N 36°48' W 076°18'2 4.8
2018-Apr-20 22:00N 36°50' W 076°17'0 0.2
2018-Apr-20 20:39N 36°50' W 076°17'0 2.7
2018-Apr-20 20:30N 36°50' W 076°17'2 4.7
2018-Apr-20 20:01N 36°48' W 076°17'0 0.5
2018-Apr-20 19:25N 36°48' W 076°18'0 0.0
2018-Apr-20 13:56N 36°48' W 076°18'0 0.0
2018-Apr-20 13:05N 36°48' W 076°18'0 0.0
2018-Apr-20 12:53N 36°48' W 076°18'0 0.0
2018-Apr-20 12:23N 36°48' W 076°18'0 0.0
2018-Apr-20 11:56N 36°48' W 076°18'0 0.0
2018-Apr-20 11:26N 36°48' W 076°18'0 0.0
2018-Apr-20 10:59N 36°48' W 076°18'0 0.0
2018-Apr-20 10:26N 36°48' W 076°18'0 0.0
2018-Apr-20 09:59N 36°48' W 076°18'0 0.0
2018-Apr-20 09:19N 36°48' W 076°18'0 0.0
2018-Apr-20 08:55N 36°48' W 076°18'0 0.0
2018-Apr-20 08:29N 36°48' W 076°18'0 0.0
2018-Apr-20 07:55N 36°48' W 076°18'0 0.0
2018-Apr-20 06:44N 36°48' W 076°18'0 0.0
2018-Apr-20 06:20N 36°48' W 076°18'0 0.0
2018-Apr-20 05:37N 36°48' W 076°18'0 0.0
2018-Apr-20 05:25N 36°48' W 076°18'0 0.0
2018-Apr-20 03:35N 36°48' W 076°18'0 0.0
2018-Apr-20 03:25N 36°48' W 076°18'0 0.0
2018-Apr-20 02:08N 36°48' W 076°18'0 0.0
2018-Apr-20 00:37N 36°48' W 076°18'0 0.0
2018-Apr-20 00:25N 36°48' W 076°18'0 0.0
2018-Apr-19 23:55N 36°48' W 076°18'0 0.0
2018-Apr-19 19:52N 36°48' W 076°18'0 0.0
2018-Apr-19 19:07N 36°48' W 076°18'0 0.0
2018-Apr-19 18:49N 36°48' W 076°18'0 0.0
2018-Apr-19 18:25N 36°48' W 076°18'0 0.0
2018-Apr-19 17:58N 36°48' W 076°18'0 0.0
2018-Apr-19 17:26N 36°48' W 076°18'0 0.0
2018-Apr-19 16:43N 36°48' W 076°18'0 0.0
2018-Apr-19 16:25N 36°48' W 076°18'0 0.0
2018-Apr-19 15:46N 36°48' W 076°18'0 0.0
2018-Apr-19 15:28N 36°48' W 076°18'0 0.0
2018-Apr-19 14:55N 36°48' W 076°18'0 0.0
2018-Apr-19 14:08N 36°48' W 076°18'0 0.0
2018-Apr-19 13:56N 36°48' W 076°18'0 0.0
2018-Apr-19 13:19N 36°48' W 076°18'0 0.0
2018-Apr-19 12:53N 36°48' W 076°18'0 0.0
2018-Apr-19 12:31N 36°48' W 076°18'0 0.0
2018-Apr-19 12:01N 36°48' W 076°18'0 0.0
2018-Apr-19 11:31N 36°48' W 076°18'0 0.0
2018-Apr-19 11:00N 36°48' W 076°18'0 0.0
2018-Apr-19 10:30N 36°48' W 076°18'0 0.0
2018-Apr-19 10:00N 36°48' W 076°18'0 0.0
2018-Apr-19 09:31N 36°48' W 076°18'0 0.0
2018-Apr-19 09:01N 36°48' W 076°18'0 0.0
2018-Apr-19 08:31N 36°48' W 076°18'0 0.0
2018-Apr-19 08:01N 36°48' W 076°18'0 0.0
2018-Apr-19 07:31N 36°48' W 076°18'0 0.0
2018-Apr-19 07:01N 36°48' W 076°18'0 0.0
2018-Apr-19 06:31N 36°48' W 076°18'0 0.0
2018-Apr-19 06:01N 36°48' W 076°18'0 0.0
2018-Apr-19 05:31N 36°48' W 076°18'0 0.0
2018-Apr-19 05:01N 36°48' W 076°18'0 0.0
2018-Apr-19 04:31N 36°48' W 076°18'0 0.0
2018-Apr-19 04:00N 36°48' W 076°18'0 0.0
2018-Apr-19 03:31N 36°48' W 076°18'0 0.0
2018-Apr-19 03:01N 36°48' W 076°18'1 1.7
2018-Apr-19 02:30N 36°49' W 076°17'4 7.3
2018-Apr-19 02:00N 36°52' W 076°20'  
Track history (hours):
 
Tides and Currents Weather Stations Pressure Air Temp Water Temp Dewpoint Dewpoint Depression Visibility Wind Speed Wind Dir Waves Ship Positions

Falcon

Owner: Vane Line Bunkering, Inc., Philadelphia, PA. More information available from US FCC via Universal Licensing System.

Last reported at 2018-Apr-25 18:17 UTC. Time now 2018-Apr-25 21:59 UTC.
Position N 36°57' W 076°20'.

; draft 3.5 m.

MMSI: 367594260.

Date/timePositionNaut miles runAvg speedWind from/ knotsBaromVisibWave heightAir tempDewpointWater temp
2018-Apr-25 18:17N 36°57' W 076°20'4 7.1
2018-Apr-25 17:44N 36°53' W 076°20'2 7.0
2018-Apr-25 17:28N 36°51' W 076°19'3 5.9
2018-Apr-25 17:01N 36°49' W 076°17'1 1.8
2018-Apr-25 16:30N 36°48' W 076°18'0 0.1
2018-Apr-25 16:01N 36°48' W 076°18'0 0.0
2018-Apr-25 15:31N 36°48' W 076°18'0 0.0
2018-Apr-25 15:00N 36°48' W 076°18'0 0.0
2018-Apr-25 14:31N 36°48' W 076°18'0 0.0
2018-Apr-25 14:00N 36°48' W 076°18'0 0.0
2018-Apr-25 13:30N 36°48' W 076°18'0 0.0
2018-Apr-25 13:01N 36°48' W 076°18'0 0.0
2018-Apr-25 12:30N 36°48' W 076°18'0 0.0
2018-Apr-25 12:01N 36°48' W 076°18'0 0.0
2018-Apr-25 11:31N 36°48' W 076°18'0 0.0
2018-Apr-25 11:00N 36°48' W 076°18'0 0.0
2018-Apr-25 10:31N 36°48' W 076°18'0 0.0
2018-Apr-25 10:01N 36°48' W 076°18'0 0.0
2018-Apr-25 09:31N 36°48' W 076°18'0 0.0
2018-Apr-25 09:01N 36°48' W 076°18'0 0.0
2018-Apr-25 08:30N 36°48' W 076°18'0 0.0
2018-Apr-25 08:01N 36°48' W 076°18'0 0.0
2018-Apr-25 07:31N 36°48' W 076°18'0 0.0
2018-Apr-25 07:01N 36°48' W 076°18'0 0.0
2018-Apr-25 06:31N 36°48' W 076°18'0 0.0
2018-Apr-25 06:01N 36°48' W 076°18'0 0.0
2018-Apr-25 05:30N 36°48' W 076°18'0 0.0
2018-Apr-25 05:01N 36°48' W 076°18'0 0.0
2018-Apr-25 04:31N 36°48' W 076°18'0 0.0
2018-Apr-25 04:00N 36°48' W 076°18'0 0.0
2018-Apr-25 03:31N 36°48' W 076°18'0 0.0
2018-Apr-25 03:00N 36°48' W 076°18'0 0.0
2018-Apr-25 02:31N 36°48' W 076°18'0 0.0
2018-Apr-25 02:01N 36°48' W 076°18'0 0.0
2018-Apr-25 01:30N 36°48' W 076°18'0 0.0
2018-Apr-25 01:00N 36°48' W 076°18'0 0.0
2018-Apr-25 00:30N 36°48' W 076°18'0 0.0
2018-Apr-25 00:01N 36°48' W 076°18'0 0.0
2018-Apr-24 23:31N 36°48' W 076°18'0 0.0
2018-Apr-24 23:00N 36°48' W 076°18'0 0.0
2018-Apr-24 22:31N 36°48' W 076°18'0 0.0
2018-Apr-24 22:01N 36°48' W 076°18'0 0.0
2018-Apr-24 21:31N 36°48' W 076°18'0 0.0
2018-Apr-24 21:01N 36°48' W 076°18'0 0.0
2018-Apr-24 20:31N 36°48' W 076°18'0 0.0
2018-Apr-24 20:00N 36°48' W 076°18'0 0.0
2018-Apr-24 19:31N 36°48' W 076°18'0 0.0
2018-Apr-24 19:01N 36°48' W 076°18'0 0.0
2018-Apr-24 16:27N 36°48' W 076°18'0 0.0
2018-Apr-24 16:00N 36°48' W 076°18'0 0.0
2018-Apr-24 15:30N 36°48' W 076°18'0 0.0
2018-Apr-24 15:00N 36°48' W 076°18'0 0.0
2018-Apr-24 14:30N 36°48' W 076°18'0 0.0
2018-Apr-24 14:00N 36°48' W 076°18'0 0.0
2018-Apr-24 13:30N 36°48' W 076°18'0 0.0
2018-Apr-24 13:00N 36°48' W 076°18'0 0.0
2018-Apr-24 12:30N 36°48' W 076°18'0 0.1
2018-Apr-24 12:00N 36°48' W 076°18'2 3.5
2018-Apr-24 11:30N 36°50' W 076°18'3 6.5
2018-Apr-24 11:00N 36°52' W 076°20'96 4.4
2018-Apr-23 13:13N 38°22' W 075°37'0 0.0
2018-Apr-23 12:52N 38°22' W 075°37'0 0.0
2018-Apr-23 12:30N 38°22' W 075°37'0 0.1
2018-Apr-23 11:42N 38°22' W 075°37'0 1.9
2018-Apr-23 11:30N 38°21' W 075°37'4 3.9
2018-Apr-23 10:34N 38°21' W 075°42'1 2.6
2018-Apr-23 10:17N 38°21' W 075°43'1 3.9
2018-Apr-23 10:00N 38°20' W 075°44'2 4.7
2018-Apr-23 09:30N 38°18' W 075°46'3 5.2
2018-Apr-23 09:00N 38°16' W 075°47'3 5.6
2018-Apr-23 08:30N 38°15' W 075°51'3 5.4
2018-Apr-23 08:00N 38°13' W 075°53'3 5.6
2018-Apr-23 07:30N 38°12' W 075°56'7 5.2
2018-Apr-23 06:04N 38°05' W 075°58'0 6.0
2018-Apr-23 06:00N 38°05' W 075°58'3 5.6
2018-Apr-23 05:30N 38°02' W 075°56'3 5.5
2018-Apr-23 05:00N 37°60' W 075°55'3 5.7
2018-Apr-23 04:30N 37°57' W 075°56'63 3.3
2018-Apr-22 09:16N 36°57' W 076°21'2 4.6
2018-Apr-22 08:55N 36°56' W 076°20'3 8.1
2018-Apr-22 08:30N 36°52' W 076°20'3 6.5
2018-Apr-22 08:01N 36°50' W 076°18'2 3.3
2018-Apr-22 07:31N 36°48' W 076°18'0 0.0
2018-Apr-22 06:50N 36°48' W 076°18'0 0.0
2018-Apr-22 06:29N 36°48' W 076°18'0 0.0
2018-Apr-22 05:59N 36°48' W 076°18'0 0.0
2018-Apr-22 05:29N 36°48' W 076°18'0 0.0
2018-Apr-22 04:53N 36°48' W 076°18'0 0.0
2018-Apr-22 04:29N 36°48' W 076°18'0 0.0
2018-Apr-22 03:59N 36°48' W 076°18'0 0.0
2018-Apr-22 03:29N 36°48' W 076°18'0 0.0
2018-Apr-22 02:50N 36°48' W 076°18'0 0.1
2018-Apr-22 02:25N 36°48' W 076°18'0 0.0
2018-Apr-22 01:49N 36°48' W 076°18'0 0.0
2018-Apr-22 01:07N 36°48' W 076°18'0 0.0
2018-Apr-22 00:37N 36°48' W 076°18'0 0.0
2018-Apr-21 22:55N 36°48' W 076°18'0 0.0
2018-Apr-21 21:37N 36°48' W 076°18'0 0.0
2018-Apr-21 21:19N 36°48' W 076°18'0 0.0
2018-Apr-21 20:55N 36°48' W 076°18'0 0.0
2018-Apr-21 19:37N 36°48' W 076°18'0 0.0
2018-Apr-21 19:10N 36°48' W 076°18'0 0.0
2018-Apr-21 18:58N 36°48' W 076°18'0 0.0
2018-Apr-21 18:29N 36°48' W 076°18'0 0.0
2018-Apr-21 18:00N 36°48' W 076°18'0 0.0
2018-Apr-21 17:30N 36°48' W 076°18'0 0.0
2018-Apr-21 17:01N 36°48' W 076°18'0 0.0
2018-Apr-21 16:31N 36°48' W 076°18'0 0.0
2018-Apr-21 16:00N 36°48' W 076°18'0 0.0
2018-Apr-21 15:30N 36°48' W 076°18'0 0.0
2018-Apr-21 15:01N 36°48' W 076°18'0 0.0
2018-Apr-21 14:31N 36°48' W 076°18'0 0.0
2018-Apr-21 14:00N 36°48' W 076°18'0 0.0
2018-Apr-21 13:31N 36°48' W 076°18'0 0.0
2018-Apr-21 13:00N 36°48' W 076°18'0 0.0
2018-Apr-21 12:31N 36°48' W 076°18'0 0.0
2018-Apr-21 12:00N 36°48' W 076°18'0 0.0
2018-Apr-21 11:31N 36°48' W 076°18'0 0.0
2018-Apr-21 11:01N 36°48' W 076°18'0 0.0
2018-Apr-21 10:30N 36°48' W 076°18'0 0.0
2018-Apr-21 10:01N 36°48' W 076°18'0 0.0
2018-Apr-21 09:31N 36°48' W 076°18'0 0.0
2018-Apr-21 09:00N 36°48' W 076°18'0 0.0
2018-Apr-21 08:30N 36°48' W 076°18'0 0.0
2018-Apr-21 08:00N 36°48' W 076°18'0 0.0
2018-Apr-21 07:31N 36°48' W 076°18'0 0.0
2018-Apr-21 07:00N 36°48' W 076°18'0 0.0
2018-Apr-21 06:30N 36°48' W 076°18'0 0.0
2018-Apr-21 06:01N 36°48' W 076°18'0 0.0
2018-Apr-21 05:30N 36°48' W 076°18'0 0.0
2018-Apr-21 05:01N 36°48' W 076°18'0 0.0
2018-Apr-21 04:31N 36°48' W 076°18'0 0.0
2018-Apr-21 04:00N 36°48' W 076°18'0 0.0
2018-Apr-21 03:31N 36°48' W 076°18'0 0.0
2018-Apr-21 03:01N 36°48' W 076°18'0 0.0
2018-Apr-21 02:31N 36°48' W 076°18'0 0.0
2018-Apr-21 02:00N 36°48' W 076°18'0 0.0
2018-Apr-21 01:30N 36°48' W 076°18'0 0.0
2018-Apr-21 01:00N 36°48' W 076°18'0 0.0
2018-Apr-21 00:31N 36°48' W 076°18'0 0.0
2018-Apr-21 00:01N 36°48' W 076°18'0 0.0
2018-Apr-20 23:30N 36°48' W 076°18'0 0.0
2018-Apr-20 23:01N 36°48' W 076°18'0 0.4
2018-Apr-20 22:31N 36°48' W 076°18'2 4.8
2018-Apr-20 22:00N 36°50' W 076°17'0 0.2
2018-Apr-20 20:39N 36°50' W 076°17'0 2.7
2018-Apr-20 20:30N 36°50' W 076°17'2 4.7
2018-Apr-20 20:01N 36°48' W 076°17'0 0.5
2018-Apr-20 19:25N 36°48' W 076°18'0 0.0
2018-Apr-20 13:56N 36°48' W 076°18'0 0.0
2018-Apr-20 13:05N 36°48' W 076°18'0 0.0
2018-Apr-20 12:53N 36°48' W 076°18'0 0.0
2018-Apr-20 12:23N 36°48' W 076°18'0 0.0
2018-Apr-20 11:56N 36°48' W 076°18'0 0.0
2018-Apr-20 11:26N 36°48' W 076°18'0 0.0
2018-Apr-20 10:59N 36°48' W 076°18'0 0.0
2018-Apr-20 10:26N 36°48' W 076°18'0 0.0
2018-Apr-20 09:59N 36°48' W 076°18'0 0.0
2018-Apr-20 09:19N 36°48' W 076°18'0 0.0
2018-Apr-20 08:55N 36°48' W 076°18'0 0.0
2018-Apr-20 08:29N 36°48' W 076°18'0 0.0
2018-Apr-20 07:55N 36°48' W 076°18'0 0.0
2018-Apr-20 06:44N 36°48' W 076°18'0 0.0
2018-Apr-20 06:20N 36°48' W 076°18'0 0.0
2018-Apr-20 05:37N 36°48' W 076°18'0 0.0
2018-Apr-20 05:25N 36°48' W 076°18'0 0.0
2018-Apr-20 03:35N 36°48' W 076°18'0 0.0
2018-Apr-20 03:25N 36°48' W 076°18'0 0.0
2018-Apr-20 02:08N 36°48' W 076°18'0 0.0
2018-Apr-20 00:37N 36°48' W 076°18'0 0.0
2018-Apr-20 00:25N 36°48' W 076°18'0 0.0
2018-Apr-19 23:55N 36°48' W 076°18'0 0.0
2018-Apr-19 19:52N 36°48' W 076°18'0 0.0
2018-Apr-19 19:07N 36°48' W 076°18'0 0.0
2018-Apr-19 18:49N 36°48' W 076°18'0 0.0
2018-Apr-19 18:25N 36°48' W 076°18'0 0.0
2018-Apr-19 17:58N 36°48' W 076°18'0 0.0
2018-Apr-19 17:26N 36°48' W 076°18'0 0.0
2018-Apr-19 16:43N 36°48' W 076°18'0 0.0
2018-Apr-19 16:25N 36°48' W 076°18'0 0.0
2018-Apr-19 15:46N 36°48' W 076°18'0 0.0
2018-Apr-19 15:28N 36°48' W 076°18'0 0.0
2018-Apr-19 14:55N 36°48' W 076°18'0 0.0
2018-Apr-19 14:08N 36°48' W 076°18'0 0.0
2018-Apr-19 13:56N 36°48' W 076°18'0 0.0
2018-Apr-19 13:19N 36°48' W 076°18'0 0.0
2018-Apr-19 12:53N 36°48' W 076°18'0 0.0
2018-Apr-19 12:31N 36°48' W 076°18'0 0.0
2018-Apr-19 12:01N 36°48' W 076°18'0 0.0
2018-Apr-19 11:31N 36°48' W 076°18'0 0.0
2018-Apr-19 11:00N 36°48' W 076°18'0 0.0
2018-Apr-19 10:30N 36°48' W 076°18'0 0.0
2018-Apr-19 10:00N 36°48' W 076°18'0 0.0
2018-Apr-19 09:31N 36°48' W 076°18'0 0.0
2018-Apr-19 09:01N 36°48' W 076°18'0 0.0
2018-Apr-19 08:31N 36°48' W 076°18'0 0.0
2018-Apr-19 08:01N 36°48' W 076°18'0 0.0
2018-Apr-19 07:31N 36°48' W 076°18'0 0.0
2018-Apr-19 07:01N 36°48' W 076°18'0 0.0
2018-Apr-19 06:31N 36°48' W 076°18'0 0.0
2018-Apr-19 06:01N 36°48' W 076°18'0 0.0
2018-Apr-19 05:31N 36°48' W 076°18'0 0.0
2018-Apr-19 05:01N 36°48' W 076°18'0 0.0
2018-Apr-19 04:31N 36°48' W 076°18'0 0.0
2018-Apr-19 04:00N 36°48' W 076°18'0 0.0
2018-Apr-19 03:31N 36°48' W 076°18'0 0.0
2018-Apr-19 03:01N 36°48' W 076°18'1 1.7
2018-Apr-19 02:30N 36°49' W 076°17'4 7.3
2018-Apr-19 02:00N 36°52' W 076°20'  

Dump ship's entire track history